Página principal
METAR-TAF:

METAR-TAF

Aeroportos :

Saint-Louis, Senegal

latitude: 16-03N, longitude: 016-27W, altura: 4 m

Observação actual do tempo

O boletim foi feito há 1 hora e 29 minutos, às 03:00 UTC
Vento 6 kt de oeste, variando entre oes-sudoeste e oes-noroeste
Temperatura 25°C
Humidade 89%
Pressão 1011 hPa
Visibilidade 10 km ou mais
sem nuvens abaixo de 1500 metros e sem cumulonimbus

METAR: GOSS 230300Z 28006KT 250V300 CAVOK 25/23 Q1011

Hora: 04:29 (04:29 UTC)

Previsão

O boletim foi feito há 5 horas e 29 minutos, às 23:00 UTC
Previsão válida de 23 às 00 UTC a 23 às 24 UTC
Vento 6 kt de oes-noroeste
Visibilidade 10 km ou mais
sem nuvens abaixo de 1500 metros e sem cumulonimbus

TAF: GOSS 222300Z 2300/2324 29006KT CAVOK

Observações e previsões do tempo de mais de 4000 aeroportos (mensagens METAR e TAF).

As estações disponíveis são os pontos amarelos e vermelhos sobre o mapa.

Mova o rato sobre o mapa para ver o nome da estação.

Depois clique no ponto para visualizar as observações e previsões meteorológicas.

Para alterar o mapa : clique nos botões verdes com uma cruz preta para aumentar o zoom; no botão verde com uma pitada de zoom; ou nas setas verdes para mapas adjacentes.


METAR-TAF: